sensor_id;sensor_type;location;lat;lon;timestamp;temperature;humidity
42141;DHT22;27809;51.864;5.646;2023-05-27T00:01:43;9.50;50.00
42141;DHT22;27809;51.864;5.646;2023-05-27T00:04:08;9.50;48.10
42141;DHT22;27809;51.864;5.646;2023-05-27T00:06:34;9.50;52.40
42141;DHT22;27809;51.864;5.646;2023-05-27T00:09:00;9.40;50.00
42141;DHT22;27809;51.864;5.646;2023-05-27T00:11:27;9.50;51.70
42141;DHT22;27809;51.864;5.646;2023-05-27T00:13:52;9.30;52.00
42141;DHT22;27809;51.864;5.646;2023-05-27T00:16:18;9.20;57.60
42141;DHT22;27809;51.864;5.646;2023-05-27T00:18:46;9.30;58.40
42141;DHT22;27809;51.864;5.646;2023-05-27T00:21:12;9.30;55.80
42141;DHT22;27809;51.864;5.646;2023-05-27T00:23:38;9.30;55.50
42141;DHT22;27809;51.864;5.646;2023-05-27T00:26:03;9.30;58.00
42141;DHT22;27809;51.864;5.646;2023-05-27T00:28:29;9.40;56.20
42141;DHT22;27809;51.864;5.646;2023-05-27T00:30:56;9.50;54.10
42141;DHT22;27809;51.864;5.646;2023-05-27T00:33:22;9.50;53.60
42141;DHT22;27809;51.864;5.646;2023-05-27T00:35:48;9.30;54.80
42141;DHT22;27809;51.864;5.646;2023-05-27T00:38:13;9.40;56.30
42141;DHT22;27809;51.864;5.646;2023-05-27T00:40:39;9.30;55.30
42141;DHT22;27809;51.864;5.646;2023-05-27T00:43:05;9.20;56.30
42141;DHT22;27809;51.864;5.646;2023-05-27T00:45:31;9.30;56.90
42141;DHT22;27809;51.864;5.646;2023-05-27T00:47:58;9.10;56.90
42141;DHT22;27809;51.864;5.646;2023-05-27T00:50:24;9.10;59.90
42141;DHT22;27809;51.864;5.646;2023-05-27T00:52:50;9.00;65.40
42141;DHT22;27809;51.864;5.646;2023-05-27T00:55:16;9.00;64.00
42141;DHT22;27809;51.864;5.646;2023-05-27T00:57:42;9.00;69.10
42141;DHT22;27809;51.864;5.646;2023-05-27T01:00:09;9.00;66.90
42141;DHT22;27809;51.864;5.646;2023-05-27T01:02:35;9.00;67.30
42141;DHT22;27809;51.864;5.646;2023-05-27T01:05:01;8.90;67.00
42141;DHT22;27809;51.864;5.646;2023-05-27T01:07:43;9.00;70.50
42141;DHT22;27809;51.864;5.646;2023-05-27T01:10:23;9.00;70.30
42141;DHT22;27809;51.864;5.646;2023-05-27T01:13:06;9.00;72.60
42141;DHT22;27809;51.864;5.646;2023-05-27T01:15:34;9.10;71.90
42141;DHT22;27809;51.864;5.646;2023-05-27T01:18:02;9.10;72.10
42141;DHT22;27809;51.864;5.646;2023-05-27T01:20:31;9.10;71.00
42141;DHT22;27809;51.864;5.646;2023-05-27T01:22:58;9.20;68.10
42141;DHT22;27809;51.864;5.646;2023-05-27T01:25:24;9.10;67.60
42141;DHT22;27809;51.864;5.646;2023-05-27T01:27:50;9.20;69.30
42141;DHT22;27809;51.864;5.646;2023-05-27T01:30:18;9.20;69.30
42141;DHT22;27809;51.864;5.646;2023-05-27T01:35:22;9.00;74.10
42141;DHT22;27809;51.864;5.646;2023-05-27T01:37:51;9.10;73.90
42141;DHT22;27809;51.864;5.646;2023-05-27T01:40:17;9.10;71.90
42141;DHT22;27809;51.864;5.646;2023-05-27T01:42:43;9.10;70.80
42141;DHT22;27809;51.864;5.646;2023-05-27T01:45:10;9.00;73.00
42141;DHT22;27809;51.864;5.646;2023-05-27T01:47:36;8.90;74.30
42141;DHT22;27809;51.864;5.646;2023-05-27T01:50:03;8.80;75.80
42141;DHT22;27809;51.864;5.646;2023-05-27T01:52:28;8.70;78.90
42141;DHT22;27809;51.864;5.646;2023-05-27T01:54:54;8.70;82.50
42141;DHT22;27809;51.864;5.646;2023-05-27T01:57:21;8.60;84.10
42141;DHT22;27809;51.864;5.646;2023-05-27T01:59:46;8.60;83.10
42141;DHT22;27809;51.864;5.646;2023-05-27T02:02:12;8.40;88.10
42141;DHT22;27809;51.864;5.646;2023-05-27T02:04:37;8.40;90.30
42141;DHT22;27809;51.864;5.646;2023-05-27T02:07:03;8.50;91.40
42141;DHT22;27809;51.864;5.646;2023-05-27T02:09:29;8.60;91.30
42141;DHT22;27809;51.864;5.646;2023-05-27T02:11:54;8.60;91.20
42141;DHT22;27809;51.864;5.646;2023-05-27T02:14:20;8.50;91.10
42141;DHT22;27809;51.864;5.646;2023-05-27T02:16:46;8.60;91.70
42141;DHT22;27809;51.864;5.646;2023-05-27T02:19:12;8.50;91.40
42141;DHT22;27809;51.864;5.646;2023-05-27T02:21:39;8.60;93.10
42141;DHT22;27809;51.864;5.646;2023-05-27T02:24:05;8.60;91.90
42141;DHT22;27809;51.864;5.646;2023-05-27T02:26:30;8.50;91.50
42141;DHT22;27809;51.864;5.646;2023-05-27T02:28:56;8.30;95.00
42141;DHT22;27809;51.864;5.646;2023-05-27T02:31:21;8.40;95.40
42141;DHT22;27809;51.864;5.646;2023-05-27T02:33:47;8.40;94.80
42141;DHT22;27809;51.864;5.646;2023-05-27T02:36:13;8.40;94.50
42141;DHT22;27809;51.864;5.646;2023-05-27T02:38:38;8.40;95.80
42141;DHT22;27809;51.864;5.646;2023-05-27T02:41:04;8.40;96.00
42141;DHT22;27809;51.864;5.646;2023-05-27T02:43:30;8.40;93.80
42141;DHT22;27809;51.864;5.646;2023-05-27T02:45:55;8.30;98.30
42141;DHT22;27809;51.864;5.646;2023-05-27T02:48:21;8.10;99.90
42141;DHT22;27809;51.864;5.646;2023-05-27T02:50:46;8.20;99.90
42141;DHT22;27809;51.864;5.646;2023-05-27T02:53:12;8.10;99.90
42141;DHT22;27809;51.864;5.646;2023-05-27T02:55:37;8.20;99.90
42141;DHT22;27809;51.864;5.646;2023-05-27T02:58:03;8.20;99.90
42141;DHT22;27809;51.864;5.646;2023-05-27T03:00:32;8.00;99.90
42141;DHT22;27809;51.864;5.646;2023-05-27T03:02:59;8.10;99.90
42141;DHT22;27809;51.864;5.646;2023-05-27T03:05:25;8.10;99.90
42141;DHT22;27809;51.864;5.646;2023-05-27T03:07:50;8.00;99.90
42141;DHT22;27809;51.864;5.646;2023-05-27T03:10:16;8.00;99.90
42141;DHT22;27809;51.864;5.646;2023-05-27T03:12:41;8.00;99.90
42141;DHT22;27809;51.864;5.646;2023-05-27T03:15:07;7.80;99.90
42141;DHT22;27809;51.864;5.646;2023-05-27T03:17:36;7.90;99.90
42141;DHT22;27809;51.864;5.646;2023-05-27T03:20:03;8.00;99.90
42141;DHT22;27809;51.864;5.646;2023-05-27T03:22:29;8.00;99.90
42141;DHT22;27809;51.864;5.646;2023-05-27T03:24:54;8.10;99.90
42141;DHT22;27809;51.864;5.646;2023-05-27T03:27:20;8.20;99.90
42141;DHT22;27809;51.864;5.646;2023-05-27T03:29:46;8.10;99.90
42141;DHT22;27809;51.864;5.646;2023-05-27T03:32:12;8.00;99.90
42141;DHT22;27809;51.864;5.646;2023-05-27T03:34:37;7.90;99.90
42141;DHT22;27809;51.864;5.646;2023-05-27T03:37:03;8.00;99.90
42141;DHT22;27809;51.864;5.646;2023-05-27T03:39:28;7.90;99.90
42141;DHT22;27809;51.864;5.646;2023-05-27T03:41:54;7.80;99.90
42141;DHT22;27809;51.864;5.646;2023-05-27T03:44:19;7.80;99.90
42141;DHT22;27809;51.864;5.646;2023-05-27T03:46:45;7.70;99.90
42141;DHT22;27809;51.864;5.646;2023-05-27T03:49:10;7.60;99.90
42141;DHT22;27809;51.864;5.646;2023-05-27T03:51:36;7.70;99.90
42141;DHT22;27809;51.864;5.646;2023-05-27T03:54:02;7.70;99.90
42141;DHT22;27809;51.864;5.646;2023-05-27T03:56:27;7.70;99.90
42141;DHT22;27809;51.864;5.646;2023-05-27T03:58:53;7.60;99.90
42141;DHT22;27809;51.864;5.646;2023-05-27T04:01:18;7.50;99.90
42141;DHT22;27809;51.864;5.646;2023-05-27T04:03:45;7.40;99.90
42141;DHT22;27809;51.864;5.646;2023-05-27T04:06:11;7.40;99.90
42141;DHT22;27809;51.864;5.646;2023-05-27T04:08:36;7.50;99.90
42141;DHT22;27809;51.864;5.646;2023-05-27T04:11:04;7.50;99.90
42141;DHT22;27809;51.864;5.646;2023-05-27T04:13:30;7.50;99.90
42141;DHT22;27809;51.864;5.646;2023-05-27T04:15:55;7.50;99.90
42141;DHT22;27809;51.864;5.646;2023-05-27T04:18:22;7.50;99.90
42141;DHT22;27809;51.864;5.646;2023-05-27T04:20:47;7.50;99.90
42141;DHT22;27809;51.864;5.646;2023-05-27T04:23:15;7.50;99.90
42141;DHT22;27809;51.864;5.646;2023-05-27T04:25:41;7.60;99.90
42141;DHT22;27809;51.864;5.646;2023-05-27T04:28:08;7.60;99.90
42141;DHT22;27809;51.864;5.646;2023-05-27T04:30:34;7.80;99.90
42141;DHT22;27809;51.864;5.646;2023-05-27T04:33:00;7.90;99.90
42141;DHT22;27809;51.864;5.646;2023-05-27T04:35:26;7.90;99.90
42141;DHT22;27809;51.864;5.646;2023-05-27T04:37:51;8.00;99.90
42141;DHT22;27809;51.864;5.646;2023-05-27T04:40:17;8.20;99.90
42141;DHT22;27809;51.864;5.646;2023-05-27T04:42:43;8.20;99.90
42141;DHT22;27809;51.864;5.646;2023-05-27T04:45:10;8.30;99.90
42141;DHT22;27809;51.864;5.646;2023-05-27T04:47:38;8.40;99.90
42141;DHT22;27809;51.864;5.646;2023-05-27T04:50:07;8.40;99.90
42141;DHT22;27809;51.864;5.646;2023-05-27T04:52:33;8.60;99.90
42141;DHT22;27809;51.864;5.646;2023-05-27T04:55:04;8.60;99.90
42141;DHT22;27809;51.864;5.646;2023-05-27T04:57:30;8.60;99.90
42141;DHT22;27809;51.864;5.646;2023-05-27T04:59:55;8.80;99.90
42141;DHT22;27809;51.864;5.646;2023-05-27T05:02:44;8.80;99.90
42141;DHT22;27809;51.864;5.646;2023-05-27T05:05:12;9.00;99.90
42141;DHT22;27809;51.864;5.646;2023-05-27T05:07:39;9.00;99.90
42141;DHT22;27809;51.864;5.646;2023-05-27T05:10:12;9.10;99.90
42141;DHT22;27809;51.864;5.646;2023-05-27T05:12:38;9.20;99.90
42141;DHT22;27809;51.864;5.646;2023-05-27T05:15:05;9.30;99.90
42141;DHT22;27809;51.864;5.646;2023-05-27T05:17:31;9.40;99.90
42141;DHT22;27809;51.864;5.646;2023-05-27T05:19:57;9.40;99.90
42141;DHT22;27809;51.864;5.646;2023-05-27T05:22:22;9.40;99.90
42141;DHT22;27809;51.864;5.646;2023-05-27T05:24:49;9.60;99.90
42141;DHT22;27809;51.864;5.646;2023-05-27T05:27:15;9.60;99.90
42141;DHT22;27809;51.864;5.646;2023-05-27T05:29:41;9.80;99.90
42141;DHT22;27809;51.864;5.646;2023-05-27T05:32:08;9.80;99.90
42141;DHT22;27809;51.864;5.646;2023-05-27T05:34:34;10.00;99.90
42141;DHT22;27809;51.864;5.646;2023-05-27T05:36:59;10.00;99.90
42141;DHT22;27809;51.864;5.646;2023-05-27T05:39:25;10.10;99.20
42141;DHT22;27809;51.864;5.646;2023-05-27T05:41:50;10.30;98.40
42141;DHT22;27809;51.864;5.646;2023-05-27T05:44:17;10.30;94.40
42141;DHT22;27809;51.864;5.646;2023-05-27T05:46:42;10.50;94.90
42141;DHT22;27809;51.864;5.646;2023-05-27T05:49:08;10.60;94.20
42141;DHT22;27809;51.864;5.646;2023-05-27T05:51:33;10.60;92.60
42141;DHT22;27809;51.864;5.646;2023-05-27T05:53:59;10.80;91.90
42141;DHT22;27809;51.864;5.646;2023-05-27T05:56:25;10.80;90.20
42141;DHT22;27809;51.864;5.646;2023-05-27T05:58:54;10.70;89.30
42141;DHT22;27809;51.864;5.646;2023-05-27T06:01:19;12.20;54.70
42141;DHT22;27809;51.864;5.646;2023-05-27T06:03:45;11.30;69.20
42141;DHT22;27809;51.864;5.646;2023-05-27T06:06:11;11.00;80.10
42141;DHT22;27809;51.864;5.646;2023-05-27T06:08:36;11.00;78.00
42141;DHT22;27809;51.864;5.646;2023-05-27T06:11:02;11.30;80.30
42141;DHT22;27809;51.864;5.646;2023-05-27T06:13:28;11.50;78.90
42141;DHT22;27809;51.864;5.646;2023-05-27T06:15:53;11.60;81.70
42141;DHT22;27809;51.864;5.646;2023-05-27T06:18:20;11.70;78.50
42141;DHT22;27809;51.864;5.646;2023-05-27T06:20:46;11.40;74.50
42141;DHT22;27809;51.864;5.646;2023-05-27T06:23:12;11.60;76.80
42141;DHT22;27809;51.864;5.646;2023-05-27T06:25:37;11.60;73.70
42141;DHT22;27809;51.864;5.646;2023-05-27T06:28:02;11.80;74.40
42141;DHT22;27809;51.864;5.646;2023-05-27T06:30:28;11.70;73.90
42141;DHT22;27809;51.864;5.646;2023-05-27T06:32:53;11.90;68.60
42141;DHT22;27809;51.864;5.646;2023-05-27T06:35:19;11.60;58.70
42141;DHT22;27809;51.864;5.646;2023-05-27T06:37:45;17.50;1.00
42141;DHT22;27809;51.864;5.646;2023-05-27T06:40:11;19.40;1.00
42141;DHT22;27809;51.864;5.646;2023-05-27T06:42:37;19.30;1.00
42141;DHT22;27809;51.864;5.646;2023-05-27T06:45:03;19.60;1.00
42141;DHT22;27809;51.864;5.646;2023-05-27T06:47:28;16.60;1.00
42141;DHT22;27809;51.864;5.646;2023-05-27T06:49:54;15.10;1.00
42141;DHT22;27809;51.864;5.646;2023-05-27T06:52:20;14.30;2.70
42141;DHT22;27809;51.864;5.646;2023-05-27T06:54:47;13.20;20.20
42141;DHT22;27809;51.864;5.646;2023-05-27T06:57:12;13.10;34.00
42141;DHT22;27809;51.864;5.646;2023-05-27T06:59:38;13.10;37.40
42141;DHT22;27809;51.864;5.646;2023-05-27T07:02:03;12.80;27.20
42141;DHT22;27809;51.864;5.646;2023-05-27T07:04:29;12.60;34.60
42141;DHT22;27809;51.864;5.646;2023-05-27T07:06:54;12.80;41.10
42141;DHT22;27809;51.864;5.646;2023-05-27T07:09:20;12.90;39.80
42141;DHT22;27809;51.864;5.646;2023-05-27T07:11:46;13.00;33.90
42141;DHT22;27809;51.864;5.646;2023-05-27T07:14:12;13.10;39.50
42141;DHT22;27809;51.864;5.646;2023-05-27T07:16:37;13.20;31.30
42141;DHT22;27809;51.864;5.646;2023-05-27T07:19:03;13.30;33.60
42141;DHT22;27809;51.864;5.646;2023-05-27T07:21:28;13.60;33.50
42141;DHT22;27809;51.864;5.646;2023-05-27T07:23:54;13.90;33.50
42141;DHT22;27809;51.864;5.646;2023-05-27T07:26:24;13.70;22.70
42141;DHT22;27809;51.864;5.646;2023-05-27T07:28:50;13.90;29.20
42141;DHT22;27809;51.864;5.646;2023-05-27T07:31:16;13.80;21.20
42141;DHT22;27809;51.864;5.646;2023-05-27T07:33:41;13.80;25.30
42141;DHT22;27809;51.864;5.646;2023-05-27T07:36:07;14.10;28.30
42141;DHT22;27809;51.864;5.646;2023-05-27T07:38:33;14.30;23.20
42141;DHT22;27809;51.864;5.646;2023-05-27T07:40:58;14.30;19.00
42141;DHT22;27809;51.864;5.646;2023-05-27T07:43:24;18.80;1.00
42141;DHT22;27809;51.864;5.646;2023-05-27T07:45:49;20.40;1.00
42141;DHT22;27809;51.864;5.646;2023-05-27T07:48:15;20.80;1.00
42141;DHT22;27809;51.864;5.646;2023-05-27T07:50:40;20.80;1.00
42141;DHT22;27809;51.864;5.646;2023-05-27T07:53:06;20.90;1.00
42141;DHT22;27809;51.864;5.646;2023-05-27T07:55:31;20.50;1.00
42141;DHT22;27809;51.864;5.646;2023-05-27T07:57:57;21.10;1.00
42141;DHT22;27809;51.864;5.646;2023-05-27T08:00:22;21.30;1.00
42141;DHT22;27809;51.864;5.646;2023-05-27T08:02:48;19.70;1.00
42141;DHT22;27809;51.864;5.646;2023-05-27T08:05:13;16.60;1.00
42141;DHT22;27809;51.864;5.646;2023-05-27T08:07:39;16.10;1.00
42141;DHT22;27809;51.864;5.646;2023-05-27T08:10:05;16.50;1.00
42141;DHT22;27809;51.864;5.646;2023-05-27T08:12:31;16.70;1.00
42141;DHT22;27809;51.864;5.646;2023-05-27T08:14:57;16.50;1.00
42141;DHT22;27809;51.864;5.646;2023-05-27T08:17:23;16.90;1.00
42141;DHT22;27809;51.864;5.646;2023-05-27T08:19:49;17.10;1.00
42141;DHT22;27809;51.864;5.646;2023-05-27T08:22:15;16.60;1.00
42141;DHT22;27809;51.864;5.646;2023-05-27T08:24:40;16.10;1.00
42141;DHT22;27809;51.864;5.646;2023-05-27T08:27:14;16.60;1.00
42141;DHT22;27809;51.864;5.646;2023-05-27T08:29:41;16.60;1.00
42141;DHT22;27809;51.864;5.646;2023-05-27T08:32:06;16.80;1.00
42141;DHT22;27809;51.864;5.646;2023-05-27T08:34:32;17.10;1.00
42141;DHT22;27809;51.864;5.646;2023-05-27T08:36:57;17.80;1.00
42141;DHT22;27809;51.864;5.646;2023-05-27T08:39:23;17.60;1.00
42141;DHT22;27809;51.864;5.646;2023-05-27T08:41:49;17.80;1.00
42141;DHT22;27809;51.864;5.646;2023-05-27T08:44:15;18.00;1.00
42141;DHT22;27809;51.864;5.646;2023-05-27T08:46:40;18.40;1.00
42141;DHT22;27809;51.864;5.646;2023-05-27T08:49:06;18.50;1.00
42141;DHT22;27809;51.864;5.646;2023-05-27T08:51:33;18.90;1.00
42141;DHT22;27809;51.864;5.646;2023-05-27T08:54:01;19.00;1.00
42141;DHT22;27809;51.864;5.646;2023-05-27T08:56:28;18.60;1.00
42141;DHT22;27809;51.864;5.646;2023-05-27T08:58:55;18.40;1.00
42141;DHT22;27809;51.864;5.646;2023-05-27T09:01:22;19.00;1.00
42141;DHT22;27809;51.864;5.646;2023-05-27T09:03:47;18.90;1.00
42141;DHT22;27809;51.864;5.646;2023-05-27T09:06:13;19.10;1.00
42141;DHT22;27809;51.864;5.646;2023-05-27T09:08:39;19.20;1.00
42141;DHT22;27809;51.864;5.646;2023-05-27T09:11:05;19.40;1.00
42141;DHT22;27809;51.864;5.646;2023-05-27T09:13:33;18.50;1.00
42141;DHT22;27809;51.864;5.646;2023-05-27T09:16:04;18.90;1.00
42141;DHT22;27809;51.864;5.646;2023-05-27T09:18:35;19.60;1.00
42141;DHT22;27809;51.864;5.646;2023-05-27T09:21:01;20.30;1.00
42141;DHT22;27809;51.864;5.646;2023-05-27T09:23:27;20.50;1.00
42141;DHT22;27809;51.864;5.646;2023-05-27T09:25:53;20.40;1.00
42141;DHT22;27809;51.864;5.646;2023-05-27T09:28:25;20.30;1.00
42141;DHT22;27809;51.864;5.646;2023-05-27T09:31:01;20.60;1.00
42141;DHT22;27809;51.864;5.646;2023-05-27T09:33:31;20.90;1.00
42141;DHT22;27809;51.864;5.646;2023-05-27T09:35:59;21.10;1.00
42141;DHT22;27809;51.864;5.646;2023-05-27T09:38:27;20.40;1.00
42141;DHT22;27809;51.864;5.646;2023-05-27T09:40:53;20.40;1.00
42141;DHT22;27809;51.864;5.646;2023-05-27T09:43:19;20.40;1.00
42141;DHT22;27809;51.864;5.646;2023-05-27T09:45:45;20.70;1.00
42141;DHT22;27809;51.864;5.646;2023-05-27T09:48:12;21.10;1.00
42141;DHT22;27809;51.864;5.646;2023-05-27T09:50:39;21.10;1.00
42141;DHT22;27809;51.864;5.646;2023-05-27T09:53:06;21.20;1.00
42141;DHT22;27809;51.864;5.646;2023-05-27T09:55:33;21.00;1.00
42141;DHT22;27809;51.864;5.646;2023-05-27T09:57:59;22.20;1.00
42141;DHT22;27809;51.864;5.646;2023-05-27T10:00:26;23.00;1.00
42141;DHT22;27809;51.864;5.646;2023-05-27T10:02:52;23.30;1.00
42141;DHT22;27809;51.864;5.646;2023-05-27T10:05:19;23.30;1.00
42141;DHT22;27809;51.864;5.646;2023-05-27T10:07:48;23.50;1.00
42141;DHT22;27809;51.864;5.646;2023-05-27T10:10:18;23.10;1.00
42141;DHT22;27809;51.864;5.646;2023-05-27T10:12:45;23.30;1.00
42141;DHT22;27809;51.864;5.646;2023-05-27T10:15:28;23.60;1.00
42141;DHT22;27809;51.864;5.646;2023-05-27T10:17:56;23.80;1.00
42141;DHT22;27809;51.864;5.646;2023-05-27T10:20:33;23.50;1.00
42141;DHT22;27809;51.864;5.646;2023-05-27T10:23:12;23.60;1.00
42141;DHT22;27809;51.864;5.646;2023-05-27T10:25:39;23.70;1.00
42141;DHT22;27809;51.864;5.646;2023-05-27T10:28:05;23.30;1.00
42141;DHT22;27809;51.864;5.646;2023-05-27T10:30:45;23.70;1.00
42141;DHT22;27809;51.864;5.646;2023-05-27T10:33:12;23.50;1.00
42141;DHT22;27809;51.864;5.646;2023-05-27T10:35:42;23.70;1.00
42141;DHT22;27809;51.864;5.646;2023-05-27T10:38:15;23.60;1.00
42141;DHT22;27809;51.864;5.646;2023-05-27T10:40:41;23.80;1.00
42141;DHT22;27809;51.864;5.646;2023-05-27T10:43:15;23.80;1.00
42141;DHT22;27809;51.864;5.646;2023-05-27T10:45:40;23.80;1.00
42141;DHT22;27809;51.864;5.646;2023-05-27T10:48:15;23.80;1.00
42141;DHT22;27809;51.864;5.646;2023-05-27T10:50:53;23.80;1.00
42141;DHT22;27809;51.864;5.646;2023-05-27T10:53:19;24.00;1.00
42141;DHT22;27809;51.864;5.646;2023-05-27T10:55:47;23.90;1.00
42141;DHT22;27809;51.864;5.646;2023-05-27T10:58:15;23.90;1.00
42141;DHT22;27809;51.864;5.646;2023-05-27T11:00:41;23.40;1.00
42141;DHT22;27809;51.864;5.646;2023-05-27T11:03:19;22.80;1.00
42141;DHT22;27809;51.864;5.646;2023-05-27T11:05:55;23.50;1.00
42141;DHT22;27809;51.864;5.646;2023-05-27T11:08:21;23.80;1.00
42141;DHT22;27809;51.864;5.646;2023-05-27T11:10:47;23.80;1.00
42141;DHT22;27809;51.864;5.646;2023-05-27T11:13:12;23.90;1.00
42141;DHT22;27809;51.864;5.646;2023-05-27T11:15:40;23.70;1.00
42141;DHT22;27809;51.864;5.646;2023-05-27T11:18:07;23.40;1.00
42141;DHT22;27809;51.864;5.646;2023-05-27T11:20:35;23.60;1.00
42141;DHT22;27809;51.864;5.646;2023-05-27T11:23:00;23.60;1.00
42141;DHT22;27809;51.864;5.646;2023-05-27T11:25:26;23.00;1.00
42141;DHT22;27809;51.864;5.646;2023-05-27T11:27:51;23.30;1.00
42141;DHT22;27809;51.864;5.646;2023-05-27T11:30:17;23.10;1.00
42141;DHT22;27809;51.864;5.646;2023-05-27T11:32:48;23.20;1.00
42141;DHT22;27809;51.864;5.646;2023-05-27T11:35:15;23.00;1.00
42141;DHT22;27809;51.864;5.646;2023-05-27T11:37:41;22.70;1.00
42141;DHT22;27809;51.864;5.646;2023-05-27T11:40:12;23.40;1.00
42141;DHT22;27809;51.864;5.646;2023-05-27T11:42:43;23.60;1.00
42141;DHT22;27809;51.864;5.646;2023-05-27T11:45:18;23.30;1.00
42141;DHT22;27809;51.864;5.646;2023-05-27T11:47:45;23.40;1.00
42141;DHT22;27809;51.864;5.646;2023-05-27T11:50:14;23.60;1.00
42141;DHT22;27809;51.864;5.646;2023-05-27T11:52:51;23.50;1.00
42141;DHT22;27809;51.864;5.646;2023-05-27T11:55:16;23.20;1.00
42141;DHT22;27809;51.864;5.646;2023-05-27T11:57:42;23.30;1.00
42141;DHT22;27809;51.864;5.646;2023-05-27T12:00:08;23.50;1.00
42141;DHT22;27809;51.864;5.646;2023-05-27T12:02:33;23.40;1.00
42141;DHT22;27809;51.864;5.646;2023-05-27T12:04:59;23.20;1.00
42141;DHT22;27809;51.864;5.646;2023-05-27T12:07:24;23.50;1.00
42141;DHT22;27809;51.864;5.646;2023-05-27T12:09:50;23.40;1.00
42141;DHT22;27809;51.864;5.646;2023-05-27T12:12:15;23.50;1.00
42141;DHT22;27809;51.864;5.646;2023-05-27T12:14:41;23.30;1.00
42141;DHT22;27809;51.864;5.646;2023-05-27T12:17:06;23.50;1.00
42141;DHT22;27809;51.864;5.646;2023-05-27T12:19:32;23.70;1.00
42141;DHT22;27809;51.864;5.646;2023-05-27T12:21:59;23.60;1.00
42141;DHT22;27809;51.864;5.646;2023-05-27T12:24:25;22.60;1.00
42141;DHT22;27809;51.864;5.646;2023-05-27T12:26:50;22.30;1.00
42141;DHT22;27809;51.864;5.646;2023-05-27T12:29:16;22.10;1.00
42141;DHT22;27809;51.864;5.646;2023-05-27T12:31:41;22.00;1.00
42141;DHT22;27809;51.864;5.646;2023-05-27T12:34:07;21.80;1.00
42141;DHT22;27809;51.864;5.646;2023-05-27T12:36:32;22.80;1.00
42141;DHT22;27809;51.864;5.646;2023-05-27T12:38:58;22.40;1.00
42141;DHT22;27809;51.864;5.646;2023-05-27T12:41:24;22.30;1.00
42141;DHT22;27809;51.864;5.646;2023-05-27T12:43:51;22.20;1.00
42141;DHT22;27809;51.864;5.646;2023-05-27T12:46:16;22.00;1.00
42141;DHT22;27809;51.864;5.646;2023-05-27T12:48:42;22.00;1.00
42141;DHT22;27809;51.864;5.646;2023-05-27T12:51:07;22.20;1.00
42141;DHT22;27809;51.864;5.646;2023-05-27T12:53:33;22.20;1.00
42141;DHT22;27809;51.864;5.646;2023-05-27T12:55:58;22.00;1.00
42141;DHT22;27809;51.864;5.646;2023-05-27T12:58:24;21.80;1.00
42141;DHT22;27809;51.864;5.646;2023-05-27T13:00:49;22.40;1.00
42141;DHT22;27809;51.864;5.646;2023-05-27T13:03:15;22.20;1.00
42141;DHT22;27809;51.864;5.646;2023-05-27T13:05:41;22.10;1.00
42141;DHT22;27809;51.864;5.646;2023-05-27T13:08:07;22.50;1.00
42141;DHT22;27809;51.864;5.646;2023-05-27T13:10:32;22.50;1.00
42141;DHT22;27809;51.864;5.646;2023-05-27T13:12:59;22.50;1.00
42141;DHT22;27809;51.864;5.646;2023-05-27T13:15:26;22.40;1.00
42141;DHT22;27809;51.864;5.646;2023-05-27T13:17:52;22.80;1.00
42141;DHT22;27809;51.864;5.646;2023-05-27T13:20:19;22.90;1.00
42141;DHT22;27809;51.864;5.646;2023-05-27T13:22:46;23.00;1.00
42141;DHT22;27809;51.864;5.646;2023-05-27T13:25:12;22.70;1.00
42141;DHT22;27809;51.864;5.646;2023-05-27T13:27:41;23.00;1.00
42141;DHT22;27809;51.864;5.646;2023-05-27T13:30:08;23.90;1.00
42141;DHT22;27809;51.864;5.646;2023-05-27T13:32:33;23.70;1.00
42141;DHT22;27809;51.864;5.646;2023-05-27T13:34:59;24.20;1.00
42141;DHT22;27809;51.864;5.646;2023-05-27T13:37:25;24.60;1.00
42141;DHT22;27809;51.864;5.646;2023-05-27T13:39:51;24.40;1.00
42141;DHT22;27809;51.864;5.646;2023-05-27T13:42:16;24.40;1.00
42141;DHT22;27809;51.864;5.646;2023-05-27T13:44:42;24.60;1.00
42141;DHT22;27809;51.864;5.646;2023-05-27T13:47:07;23.60;1.00
42141;DHT22;27809;51.864;5.646;2023-05-27T13:49:33;23.20;1.00
42141;DHT22;27809;51.864;5.646;2023-05-27T13:51:59;23.40;1.00
42141;DHT22;27809;51.864;5.646;2023-05-27T13:54:25;23.00;1.00
42141;DHT22;27809;51.864;5.646;2023-05-27T13:56:50;23.10;1.00
42141;DHT22;27809;51.864;5.646;2023-05-27T13:59:16;23.30;1.00
42141;DHT22;27809;51.864;5.646;2023-05-27T14:01:41;23.20;1.00
42141;DHT22;27809;51.864;5.646;2023-05-27T14:04:07;23.80;1.00
42141;DHT22;27809;51.864;5.646;2023-05-27T14:06:33;24.70;1.00
42141;DHT22;27809;51.864;5.646;2023-05-27T14:08:58;25.00;1.00
42141;DHT22;27809;51.864;5.646;2023-05-27T14:11:24;24.90;1.00
42141;DHT22;27809;51.864;5.646;2023-05-27T14:13:49;25.00;1.00
42141;DHT22;27809;51.864;5.646;2023-05-27T14:16:16;25.10;1.00
42141;DHT22;27809;51.864;5.646;2023-05-27T14:18:41;24.60;1.00
42141;DHT22;27809;51.864;5.646;2023-05-27T14:21:08;25.10;1.00
42141;DHT22;27809;51.864;5.646;2023-05-27T14:23:34;25.20;1.00
42141;DHT22;27809;51.864;5.646;2023-05-27T14:25:59;25.20;1.00
42141;DHT22;27809;51.864;5.646;2023-05-27T14:28:25;25.20;1.00
42141;DHT22;27809;51.864;5.646;2023-05-27T14:30:51;25.10;1.00
42141;DHT22;27809;51.864;5.646;2023-05-27T14:33:18;25.20;1.00
42141;DHT22;27809;51.864;5.646;2023-05-27T14:35:43;25.50;1.00
42141;DHT22;27809;51.864;5.646;2023-05-27T14:38:10;25.40;1.00
42141;DHT22;27809;51.864;5.646;2023-05-27T14:40:36;24.70;1.00
42141;DHT22;27809;51.864;5.646;2023-05-27T14:43:02;25.20;1.00
42141;DHT22;27809;51.864;5.646;2023-05-27T14:45:27;25.10;1.00
42141;DHT22;27809;51.864;5.646;2023-05-27T14:47:53;25.50;1.00
42141;DHT22;27809;51.864;5.646;2023-05-27T14:50:22;25.40;1.00
42141;DHT22;27809;51.864;5.646;2023-05-27T14:52:52;25.00;1.00
42141;DHT22;27809;51.864;5.646;2023-05-27T14:55:19;25.50;1.00
42141;DHT22;27809;51.864;5.646;2023-05-27T14:57:45;25.60;1.00
42141;DHT22;27809;51.864;5.646;2023-05-27T15:00:11;25.60;1.00
42141;DHT22;27809;51.864;5.646;2023-05-27T15:02:37;25.50;1.00
42141;DHT22;27809;51.864;5.646;2023-05-27T15:05:04;25.80;1.00
42141;DHT22;27809;51.864;5.646;2023-05-27T15:07:32;25.80;1.00
42141;DHT22;27809;51.864;5.646;2023-05-27T15:09:57;25.90;1.00
42141;DHT22;27809;51.864;5.646;2023-05-27T15:12:23;26.10;1.00
42141;DHT22;27809;51.864;5.646;2023-05-27T15:14:49;25.80;1.00
42141;DHT22;27809;51.864;5.646;2023-05-27T15:17:14;25.60;1.00
42141;DHT22;27809;51.864;5.646;2023-05-27T15:19:40;25.30;1.00
42141;DHT22;27809;51.864;5.646;2023-05-27T15:22:06;25.00;1.00
42141;DHT22;27809;51.864;5.646;2023-05-27T15:24:35;25.00;1.00
42141;DHT22;27809;51.864;5.646;2023-05-27T15:27:00;25.20;1.00
42141;DHT22;27809;51.864;5.646;2023-05-27T15:29:28;24.90;1.00
42141;DHT22;27809;51.864;5.646;2023-05-27T15:31:53;25.40;1.00
42141;DHT22;27809;51.864;5.646;2023-05-27T15:34:19;25.40;1.00
42141;DHT22;27809;51.864;5.646;2023-05-27T15:36:44;25.50;1.00
42141;DHT22;27809;51.864;5.646;2023-05-27T15:39:10;25.60;1.00
42141;DHT22;27809;51.864;5.646;2023-05-27T15:41:35;25.90;1.00
42141;DHT22;27809;51.864;5.646;2023-05-27T15:44:01;26.10;1.00